Time;durP1;ratioP1;P1;durP2;ratioP2;P2;SDS_P1;SDS_P2;PMS_P1;PMS_P2;Temp;Humidity;BMP_temperature;BMP_pressure;BME280_temperature;BME280_humidity;BME280_pressure;Samples;Min_cycle;Max_cycle;Signal;HPM_P1;HPM_P2
2021/03/05 00:01:49;;;;;;;78.73;43.00;;;;;;;6.69;57.56;100102.13;125632;1099;104178;-76
2021/03/05 00:04:17;;;;;;;77.67;41.47;;;;;;;6.67;57.59;100111.61;125632;1099;104185;-76
2021/03/05 00:06:46;;;;;;;77.13;40.10;;;;;;;6.66;57.63;100097.66;125640;1099;104293;-76
2021/03/05 00:09:15;;;;;;;78.43;41.83;;;;;;;6.66;57.64;100096.77;125645;1099;104169;-76
2021/03/05 00:11:44;;;;;;;72.57;38.40;;;;;;;6.67;57.74;100098.56;125652;1099;104175;-76
2021/03/05 00:14:13;;;;;;;71.37;39.33;;;;;;;6.66;57.93;100101.98;125651;1099;104195;-76
2021/03/05 00:16:43;;;;;;;75.10;39.73;;;;;;;6.68;57.72;100100.33;125603;1099;104306;-76
2021/03/05 00:19:12;;;;;;;73.80;38.93;;;;;;;6.71;57.83;100100.47;125554;1103;104300;-76
2021/03/05 00:21:41;;;;;;;73.23;38.43;;;;;;;6.69;57.86;100096.91;125629;1099;104169;-76
2021/03/05 00:24:11;;;;;;;69.33;35.30;;;;;;;6.70;57.65;100095.19;125591;1099;104350;-76
2021/03/05 00:26:40;;;;;;;70.97;36.33;;;;;;;6.69;57.93;100090.81;125675;1099;104181;-76
2021/03/05 00:29:09;;;;;;;72.57;37.00;;;;;;;6.69;57.93;100094.30;125671;1099;104166;-76
2021/03/05 00:31:38;;;;;;;70.67;38.10;;;;;;;6.68;58.05;100087.30;125652;1099;104169;-77
2021/03/05 00:34:07;;;;;;;68.70;36.23;;;;;;;6.68;58.00;100086.41;125608;1099;104181;-77
2021/03/05 00:36:36;;;;;;;68.17;35.90;;;;;;;6.68;57.93;100089.91;125647;1099;104172;-77
2021/03/05 00:39:06;;;;;;;64.50;35.10;;;;;;;6.67;58.02;100090.75;125033;1099;104248;-76
2021/03/05 00:41:36;;;;;;;72.00;35.73;;;;;;;6.65;57.79;100094.98;125687;1099;104210;-76
2021/03/05 00:44:06;;;;;;;70.57;37.33;;;;;;;6.61;57.88;100098.30;125597;1099;104437;-78
2021/03/05 00:46:35;;;;;;;68.50;35.93;;;;;;;6.59;57.92;100090.41;125647;1099;104182;-76
2021/03/05 00:49:04;;;;;;;68.57;36.10;;;;;;;6.60;58.27;100091.28;125633;1099;104271;-76
2021/03/05 00:51:34;;;;;;;66.73;34.97;;;;;;;6.63;58.49;100092.30;125678;1099;104249;-77
2021/03/05 00:54:03;;;;;;;63.10;32.43;;;;;;;6.70;58.26;100090.88;125639;1099;104304;-76
2021/03/05 00:56:32;;;;;;;70.53;35.67;;;;;;;6.74;58.10;100084.96;125576;1099;104172;-76
2021/03/05 00:59:01;;;;;;;63.33;33.90;;;;;;;6.76;58.08;100080.73;125646;1099;104166;-77
2021/03/05 01:01:31;;;;;;;65.13;32.10;;;;;;;6.77;58.06;100087.70;125654;1099;104172;-76
2021/03/05 01:04:00;;;;;;;67.53;36.27;;;;;;;6.75;58.42;100084.14;125667;1099;104214;-76
2021/03/05 01:06:34;;;;;;;70.37;35.47;;;;;;;6.73;58.56;100088.41;125573;1099;104320;-76
2021/03/05 01:09:07;;;;;;;69.67;36.90;;;;;;;6.72;58.32;100094.44;125617;1099;104178;-76
2021/03/05 01:11:36;;;;;;;65.03;34.37;;;;;;;6.67;58.72;100095.96;125631;1099;104650;-76
2021/03/05 01:14:06;;;;;;;65.53;34.50;;;;;;;6.63;58.41;100099.24;125659;1099;104169;-76
2021/03/05 01:16:35;;;;;;;68.67;36.47;;;;;;;6.59;58.24;100102.52;125648;1099;104168;-76
2021/03/05 01:19:09;;;;;;;65.95;35.45;;;;;;;6.54;58.33;100099.70;125594;1098;104285;-77
2021/03/05 01:21:38;;;;;;;64.43;34.97;;;;;;;6.51;58.36;100090.87;125582;1099;104570;-76
2021/03/05 01:24:09;;;;;;;61.40;31.97;;;;;;;6.47;58.50;100098.55;125644;1099;104172;-76
2021/03/05 01:26:40;;;;;;;71.60;36.17;;;;;;;6.45;58.66;100107.11;125640;1098;104200;-76
2021/03/05 01:29:10;;;;;;;60.73;32.50;;;;;;;6.43;58.46;100101.82;125636;1099;104169;-76
2021/03/05 01:31:38;;;;;;;61.07;31.13;;;;;;;6.45;58.49;100105.41;125596;1099;104178;-76
2021/03/05 01:34:08;;;;;;;57.93;30.97;;;;;;;6.46;58.63;100108.90;125580;1099;104970;-76
2021/03/05 01:36:37;;;;;;;63.00;32.33;;;;;;;6.45;58.48;100110.63;125634;1099;104293;-76
2021/03/05 01:39:07;;;;;;;64.33;33.00;;;;;;;6.45;58.65;100102.80;125647;1099;105606;-76
2021/03/05 01:41:37;;;;;;;64.07;33.43;;;;;;;6.43;58.60;100106.16;125643;1099;104248;-76
2021/03/05 01:44:08;;;;;;;54.70;30.23;;;;;;;6.40;58.98;100113.83;125675;1099;104221;-76
2021/03/05 01:46:37;;;;;;;62.20;32.30;;;;;;;6.37;58.97;100114.56;125625;1099;104312;-75
2021/03/05 01:49:06;;;;;;;63.87;33.10;;;;;;;6.33;58.74;100107.45;125657;1100;104175;-76
2021/03/05 01:51:37;;;;;;;61.70;31.07;;;;;;;6.32;59.02;100109.98;125671;1099;104172;-76
2021/03/05 01:54:08;;;;;;;63.93;32.80;;;;;;;6.29;59.03;100105.52;125693;1099;104174;-76
2021/03/05 01:56:41;;;;;;;64.57;32.57;;;;;;;6.27;58.80;100107.16;125596;1097;104433;-76
2021/03/05 01:59:12;;;;;;;66.30;34.27;;;;;;;6.24;59.14;100107.91;125604;1099;104268;-76
2021/03/05 02:01:41;;;;;;;62.23;31.30;;;;;;;6.24;58.91;100107.91;125652;1098;104245;-76
2021/03/05 02:04:12;;;;;;;58.67;30.90;;;;;;;6.23;59.17;100107.83;125610;1099;104162;-76
2021/03/05 02:06:41;;;;;;;59.00;31.70;;;;;;;6.22;59.27;100113.89;125643;1099;104230;-76
2021/03/05 02:09:11;;;;;;;61.13;30.90;;;;;;;6.21;59.31;100107.76;125638;1098;104266;-76
2021/03/05 02:11:40;;;;;;;58.60;30.13;;;;;;;6.22;59.05;100119.09;125598;1099;104315;-76
2021/03/05 02:14:11;;;;;;;58.47;31.40;;;;;;;6.19;59.12;100121.55;125644;1098;104238;-76
2021/03/05 02:16:58;;;;;;;63.07;32.90;;;;;;;6.17;58.99;100117.96;125500;1099;104233;-76
2021/03/05 02:19:53;;;;;;;60.20;31.00;;;;;;;6.12;59.32;100120.34;125065;1099;104570;-76
2021/03/05 02:22:38;;;;;;;58.92;31.25;;;;;;;6.06;59.08;100117.45;125653;1099;104172;-76
2021/03/05 02:25:28;;;;;;;61.63;31.37;;;;;;;6.01;59.37;100122.44;125651;1098;104351;-76
2021/03/05 02:28:19;;;;;;;60.93;31.80;;;;;;;6.00;59.51;100119.77;125623;1099;104290;-76
2021/03/05 02:31:13;;;;;;;59.90;30.87;;;;;;;6.01;59.34;100117.23;125647;1099;104303;-76
2021/03/05 02:33:49;;;;;;;55.83;30.83;;;;;;;6.03;59.63;100125.13;125602;1099;104248;-76
2021/03/05 02:36:25;;;;;;;64.40;34.03;;;;;;;6.07;59.38;100125.34;125581;1099;104289;-77
2021/03/05 02:39:03;;;;;;;65.93;32.87;;;;;;;6.09;59.64;100125.41;125620;1099;107025;-76
2021/03/05 02:41:35;;;;;;;67.33;33.53;;;;;;;6.07;59.58;100125.34;125658;1099;104824;-76
2021/03/05 02:44:10;;;;;;;63.50;34.20;;;;;;;6.06;59.62;100122.66;125660;1099;104226;-76
2021/03/05 02:46:40;;;;;;;;;;;;;;;6.05;59.41;100136.53;125720;1099;104177;-77
2021/03/05 02:49:11;;;;;;;67.63;33.03;;;;;;;6.01;59.63;100137.19;125620;1099;119246;-76
2021/03/05 02:51:42;;;;;;;66.65;34.25;;;;;;;5.95;59.59;100142.95;125611;1098;104217;-75
2021/03/05 02:54:13;;;;;;;69.23;34.50;;;;;;;5.89;59.37;100142.65;125676;1098;104175;-76
2021/03/05 02:56:46;;;;;;;64.57;33.03;;;;;;;5.82;59.85;100138.86;125637;1099;104290;-76
2021/03/05 02:59:18;;;;;;;59.17;30.60;;;;;;;5.78;60.00;100141.24;125659;1099;106827;-76
2021/03/05 03:01:51;;;;;;;60.70;32.47;;;;;;;5.74;59.78;100150.62;125656;1099;104198;-76
2021/03/05 03:04:20;;;;;;;61.43;31.80;;;;;;;5.71;59.65;100145.27;125632;1099;104174;-76
2021/03/05 03:06:50;;;;;;;62.63;31.67;;;;;;;5.69;60.24;100157.33;125645;1099;104165;-76
2021/03/05 03:09:22;;;;;;;63.30;33.17;;;;;;;5.65;59.92;100156.25;125615;1099;104162;-76
2021/03/05 03:11:52;;;;;;;68.30;33.43;;;;;;;5.62;59.89;100165.63;125674;1099;104173;-77
2021/03/05 03:14:22;;;;;;;65.87;33.23;;;;;;;5.56;60.05;100161.00;125632;1099;104287;-76
2021/03/05 03:16:53;;;;;;;63.10;32.47;;;;;;;5.53;59.91;100156.55;125644;1099;104172;-76
2021/03/05 03:19:24;;;;;;;61.53;31.33;;;;;;;5.51;60.37;100158.16;125610;1099;104296;-76
2021/03/05 03:21:53;;;;;;;64.97;31.70;;;;;;;5.50;60.33;100159.00;125643;1099;104171;-76
2021/03/05 03:24:22;;;;;;;65.60;33.07;;;;;;;5.51;60.12;100162.48;125627;1099;104258;-76
2021/03/05 03:26:52;;;;;;;59.83;32.33;;;;;;;5.48;60.22;100158.01;125017;1099;104248;-76
2021/03/05 03:29:21;;;;;;;60.50;31.33;;;;;;;5.50;60.19;100155.48;125607;1099;104197;-76
2021/03/05 03:31:50;;;;;;;64.63;32.90;;;;;;;5.50;60.78;100160.69;125602;1099;104181;-77
2021/03/05 03:34:22;;;;;;;59.63;32.80;;;;;;;5.50;60.33;100163.29;125639;1099;104271;-76
2021/03/05 03:36:52;;;;;;;61.07;31.97;;;;;;;5.48;60.63;100167.53;125703;1099;104285;-76
2021/03/05 03:39:23;;;;;;;62.13;32.10;;;;;;;5.47;60.45;100165.73;125623;1099;104283;-76
2021/03/05 03:41:53;;;;;;;59.87;30.47;;;;;;;5.43;60.77;100164.70;125627;1099;104201;-77
2021/03/05 03:44:23;;;;;;;60.40;31.20;;;;;;;5.40;60.85;100168.03;125671;1099;104270;-76
2021/03/05 03:46:53;;;;;;;66.20;33.93;;;;;;;5.43;60.27;100174.22;125691;1099;104172;-76
2021/03/05 03:49:27;;;;;;;66.90;32.27;;;;;;;5.47;60.80;100179.66;125641;1099;104273;-76
2021/03/05 03:51:59;;;;;;;;;;;;;;;5.54;61.02;100179.14;125680;1098;104224;-76
2021/03/05 03:54:29;;;;;;;62.10;31.87;;;;;;;5.57;60.65;100189.70;125616;1098;104290;-77
2021/03/05 03:57:02;;;;;;;60.57;30.57;;;;;;;5.61;60.62;100182.05;125661;1099;104299;-77
2021/03/05 03:59:34;;;;;;;61.53;31.17;;;;;;;5.63;60.83;100183.05;125651;1099;104245;-76
2021/03/05 04:02:05;;;;;;;62.57;32.40;;;;;;;5.62;60.42;100169.11;125668;1099;104296;-76
2021/03/05 04:04:38;;;;;;;57.80;30.73;;;;;;;5.63;60.59;100163.11;125570;1099;104198;-76
2021/03/05 04:07:08;;;;;;;60.57;30.67;;;;;;;5.65;60.44;100170.98;125612;1099;104369;-76
2021/03/05 04:09:39;;;;;;;64.80;33.15;;;;;;;5.67;60.77;100154.64;125637;1099;104168;-77
2021/03/05 04:12:09;;;;;;;60.57;31.73;;;;;;;5.70;60.84;100146.07;125661;1099;104217;-76
2021/03/05 04:14:39;;;;;;;63.23;31.30;;;;;;;5.72;60.67;100150.55;125610;1099;104755;-76
2021/03/05 04:17:08;;;;;;;63.97;32.13;;;;;;;5.71;60.89;100138.33;125645;1099;104226;-76
2021/03/05 04:19:38;;;;;;;60.50;31.03;;;;;;;5.71;60.63;100138.33;125547;1099;104233;-76
2021/03/05 04:22:07;;;;;;;61.00;30.57;;;;;;;5.70;60.84;100139.17;125611;1099;104291;-76
2021/03/05 04:24:36;;;;;;;62.10;31.07;;;;;;;5.70;60.97;100140.86;125621;1099;104178;-76
2021/03/05 04:27:08;;;;;;;61.93;30.60;;;;;;;5.70;61.08;100146.98;125673;1099;104178;-76
2021/03/05 04:29:37;;;;;;;59.80;29.27;;;;;;;5.68;60.95;100156.41;125629;1099;104166;-76
2021/03/05 04:32:07;;;;;;;66.50;32.10;;;;;;;5.68;61.14;100160.73;125589;1099;104213;-76
2021/03/05 04:34:36;;;;;;;63.50;31.30;;;;;;;5.69;61.21;100158.20;125640;1100;104181;-76
2021/03/05 04:37:05;;;;;;;62.80;30.20;;;;;;;5.70;61.36;100169.50;125606;1099;104267;-76
2021/03/05 04:39:35;;;;;;;57.27;30.10;;;;;;;5.74;60.99;100168.84;125516;1099;104229;-76
2021/03/05 04:42:04;;;;;;;62.47;31.70;;;;;;;5.76;61.16;100157.70;125653;1099;104210;-76
2021/03/05 04:44:33;;;;;;;65.27;31.57;;;;;;;5.78;61.09;100162.98;125576;1099;104181;-76
2021/03/05 04:47:02;;;;;;;62.20;32.60;;;;;;;5.80;61.28;100160.42;125646;1099;104293;-76
2021/03/05 04:49:31;;;;;;;65.67;32.07;;;;;;;5.82;61.43;100162.30;125599;1099;104182;-75
2021/03/05 04:52:00;;;;;;;62.33;32.03;;;;;;;5.84;61.18;100159.77;125607;1099;104634;-76
2021/03/05 04:54:30;;;;;;;62.30;32.87;;;;;;;5.81;61.22;100159.62;125674;1098;104527;-76
2021/03/05 04:56:59;;;;;;;70.87;34.90;;;;;;;5.82;61.31;100166.63;125660;1099;104303;-76
2021/03/05 04:59:28;;;;;;;61.23;31.77;;;;;;;5.82;61.24;100170.11;125617;1098;104172;-76
2021/03/05 05:01:57;;;;;;;60.87;32.23;;;;;;;5.82;61.42;100164.91;125610;1099;104412;-76
2021/03/05 05:04:26;;;;;;;68.53;33.13;;;;;;;5.80;61.38;100163.94;125669;1099;104177;-77
2021/03/05 05:06:54;;;;;;;58.77;31.07;;;;;;;5.76;61.19;100168.12;125647;1099;104233;-77
2021/03/05 05:09:24;;;;;;;58.13;30.97;;;;;;;5.69;60.83;100173.83;125007;1099;104904;-76
2021/03/05 05:11:52;;;;;;;65.63;32.37;;;;;;;5.67;61.23;100171.95;125654;1099;104270;-77
2021/03/05 05:14:21;;;;;;;69.07;33.00;;;;;;;5.71;61.64;100177.39;125670;1099;104159;-76
2021/03/05 05:16:50;;;;;;;64.00;31.97;;;;;;;5.80;61.62;100170.84;125611;1099;104207;-77
2021/03/05 05:19:19;;;;;;;63.50;32.30;;;;;;;5.92;61.67;100184.47;125666;1099;104294;-77
2021/03/05 05:21:48;;;;;;;61.87;33.53;;;;;;;6.03;61.46;100185.95;125600;1099;104313;-77
2021/03/05 05:24:17;;;;;;;65.10;32.67;;;;;;;6.14;61.12;100180.34;125629;1099;104166;-77
2021/03/05 05:26:46;;;;;;;66.55;35.15;;;;;;;6.24;61.59;100172.16;125592;1099;104293;-76
2021/03/05 05:29:15;;;;;;;65.00;32.73;;;;;;;6.37;61.53;100174.51;125669;1099;104201;-77
2021/03/05 05:31:43;;;;;;;65.70;34.00;;;;;;;6.47;61.30;100179.34;125626;1099;104174;-77
2021/03/05 05:34:12;;;;;;;60.43;32.53;;;;;;;6.58;61.46;100181.58;125627;1099;104179;-77
2021/03/05 05:36:41;;;;;;;63.20;32.60;;;;;;;6.71;61.67;100169.98;125659;1099;104159;-77
2021/03/05 05:39:10;;;;;;;57.40;31.90;;;;;;;6.83;61.26;100181.87;125621;1099;104171;-77
2021/03/05 05:41:40;;;;;;;59.13;31.30;;;;;;;6.96;61.47;100177.20;125646;1099;104274;-77
2021/03/05 05:44:10;;;;;;;56.90;30.27;;;;;;;7.04;61.12;100173.22;125674;1098;104230;-77
2021/03/05 05:46:40;;;;;;;61.97;29.60;;;;;;;7.09;61.06;100174.34;125645;1099;104278;-77
2021/03/05 05:49:14;;;;;;;59.80;30.90;;;;;;;7.12;61.20;100179.69;125663;1099;104171;-77
2021/03/05 05:51:42;;;;;;;;;;;;;;;7.23;61.31;100182.77;125680;1099;104290;-76
2021/03/05 05:54:16;;;;;;;56.37;29.37;;;;;;;7.33;61.14;100187.55;125671;1099;104239;-77
2021/03/05 05:56:45;;;;;;;57.13;29.42;;;;;;;7.45;61.05;100187.20;125624;1099;104221;-77
2021/03/05 05:59:14;;;;;;;54.97;28.57;;;;;;;7.56;61.27;100190.28;125624;1099;104174;-77
2021/03/05 06:01:45;;;;;;;57.80;30.53;;;;;;;7.68;61.08;100196.02;125587;1099;104242;-76
2021/03/05 06:04:16;;;;;;;61.43;30.23;;;;;;;7.81;61.12;100201.77;125648;1099;104149;-76
2021/03/05 06:06:46;;;;;;;55.70;28.80;;;;;;;7.91;61.14;100201.30;125592;1099;104297;-77
2021/03/05 06:09:15;;;;;;;63.13;31.13;;;;;;;7.99;61.08;100199.02;125644;1099;104144;-77
2021/03/05 06:11:44;;;;;;;52.77;29.47;;;;;;;8.05;60.98;100197.53;125079;1099;104280;-76
2021/03/05 06:14:14;;;;;;;59.50;29.27;;;;;;;8.11;60.46;100215.20;125660;1099;104174;-76
2021/03/05 06:16:54;;;;;;;59.70;30.47;;;;;;;8.13;60.40;100205.69;125618;1099;104204;-77
2021/03/05 06:19:26;;;;;;;61.10;31.07;;;;;;;8.14;60.70;100209.21;125654;1099;104248;-76
2021/03/05 06:21:56;;;;;;;54.10;28.63;;;;;;;8.16;60.41;100202.31;125606;1099;104178;-77
2021/03/05 06:24:26;;;;;;;57.87;31.23;;;;;;;8.17;60.31;100207.61;125651;1099;104303;-77
2021/03/05 06:26:58;;;;;;;63.07;30.13;;;;;;;8.20;60.81;100205.12;125643;1099;104178;-78
2021/03/05 06:29:37;;;;;;;57.63;32.00;;;;;;;8.25;60.56;100194.84;125600;1099;104169;-76
2021/03/05 06:32:08;;;;;;;61.47;31.20;;;;;;;8.28;60.14;100198.47;125616;1099;104626;-76
2021/03/05 06:34:46;;;;;;;61.43;29.73;;;;;;;8.33;60.34;100192.55;125629;1099;104179;-76
2021/03/05 06:37:16;;;;;;;60.93;30.67;;;;;;;8.41;60.73;100199.87;125594;1099;104213;-78
2021/03/05 06:39:56;;;;;;;60.80;31.00;;;;;;;8.50;60.51;100199.35;125572;1099;104262;-77
2021/03/05 06:42:25;;;;;;;60.43;31.70;;;;;;;8.62;60.51;100196.34;125570;1099;104188;-76
2021/03/05 06:44:54;;;;;;;60.63;31.33;;;;;;;8.74;60.13;100195.89;125635;1099;104179;-76
2021/03/05 06:47:25;;;;;;;61.77;33.03;;;;;;;8.85;60.78;100198.92;125612;1099;104286;-79
2021/03/05 06:49:56;;;;;;;57.47;29.27;;;;;;;8.95;59.94;100194.09;125582;1099;104325;-80
2021/03/05 06:52:37;;;;;;;62.83;31.33;;;;;;;9.07;59.98;100190.14;125608;1099;104227;-81
2021/03/05 06:55:08;;;;;;;59.10;29.40;;;;;;;9.19;60.30;100198.44;125574;1099;104204;-76
2021/03/05 06:57:38;;;;;;;62.33;29.40;;;;;;;9.28;60.18;100206.63;125689;1099;104656;-76
2021/03/05 07:00:19;;;;;;;52.03;29.80;;;;;;;9.31;60.40;100208.48;125607;1099;104372;-78
2021/03/05 07:02:48;;;;;;;61.17;30.90;;;;;;;9.38;59.70;100209.58;125592;1099;104251;-77
2021/03/05 07:05:38;;;;;;;64.57;32.70;;;;;;;9.47;59.72;100207.29;125652;1099;104305;-76
2021/03/05 07:08:08;;;;;;;61.93;31.00;;;;;;;9.56;60.29;100207.62;125120;1099;104162;-78
2021/03/05 07:10:40;;;;;;;62.53;31.80;;;;;;;9.62;60.07;100202.59;125671;1099;104198;-77
2021/03/05 07:13:09;;;;;;;65.20;33.43;;;;;;;9.61;59.38;100198.18;125626;1099;104181;-78
2021/03/05 07:15:56;;;;;;;63.00;31.83;;;;;;;9.67;59.71;100203.63;125603;1099;104178;-76
2021/03/05 07:18:25;;;;;;;65.33;32.20;;;;;;;9.77;59.69;100202.24;125574;1099;104181;-77
2021/03/05 07:20:54;;;;;;;57.47;31.63;;;;;;;9.83;59.58;100198.92;125629;1099;104174;-77
2021/03/05 07:23:28;;;;;;;74.07;35.53;;;;;;;9.84;59.63;100198.09;125637;1099;104172;-77
2021/03/05 07:25:58;;;;;;;64.35;34.80;;;;;;;9.83;59.06;100206.78;125648;1099;104245;-78
2021/03/05 07:28:27;;;;;;;71.07;37.57;;;;;;;9.84;59.28;100204.21;125574;1099;104331;-75
2021/03/05 07:30:59;;;;;;;74.50;38.27;;;;;;;9.88;58.91;100205.23;125593;1099;104185;-75
2021/03/05 07:33:33;;;;;;;84.77;43.63;;;;;;;9.96;59.44;100197.63;125632;1098;104230;-77
2021/03/05 07:36:05;;;;;;;86.20;46.53;;;;;;;10.01;59.32;100202.16;125696;1099;104157;-76
2021/03/05 07:38:41;;;;;;;80.93;45.43;;;;;;;10.16;58.96;100200.88;125692;1099;104172;-75
2021/03/05 07:41:13;;;;;;;77.20;42.97;;;;;;;10.33;59.39;100198.83;125557;1099;104146;-77
2021/03/05 07:43:46;;;;;;;69.63;35.40;;;;;;;10.54;58.67;100198.62;125589;1099;104165;-76
2021/03/05 07:46:16;;;;;;;70.17;37.17;;;;;;;10.67;58.82;100195.52;125593;1099;104162;-76
2021/03/05 07:48:49;;;;;;;68.17;35.37;;;;;;;10.78;58.42;100199.38;125594;1099;104229;-75
2021/03/05 07:51:23;;;;;;;64.57;34.07;;;;;;;10.85;58.62;100199.56;125608;1099;104182;-79
2021/03/05 07:53:57;;;;;;;67.53;33.90;;;;;;;10.93;58.79;100208.55;125534;1099;104310;-80
2021/03/05 07:56:40;;;;;;;64.83;32.80;;;;;;;10.91;58.66;100205.00;125624;1099;104159;-76
2021/03/05 07:59:10;;;;;;;64.60;33.43;;;;;;;10.92;58.59;100198.88;125635;1099;104165;-76
2021/03/05 08:01:56;;;;;;;60.17;31.53;;;;;;;10.91;57.69;100200.63;125468;1099;104213;-78
2021/03/05 08:04:45;;;;;;;65.97;33.40;;;;;;;10.93;57.86;100206.80;125188;1099;104239;-79
2021/03/05 08:07:15;;;;;;;61.27;33.17;;;;;;;10.87;57.95;100211.86;125547;1099;104153;-76
2021/03/05 08:09:47;;;;;;;64.93;33.37;;;;;;;10.82;57.71;100204.72;125591;1099;104169;-79
2021/03/05 08:12:37;;;;;;;69.53;35.23;;;;;;;10.72;57.87;100199.20;125521;1099;104182;-80
2021/03/05 08:15:29;;;;;;;65.20;35.10;;;;;;;10.72;57.88;100193.95;125358;1099;104172;-81
2021/03/05 08:18:19;;;;;;;58.60;31.50;;;;;;;10.76;57.63;100195.80;125581;1099;103935;-78
2021/03/05 08:20:56;;;;;;;64.00;35.60;;;;;;;10.73;57.54;100192.20;126420;1099;102455;-78
2021/03/05 08:23:26;;;;;;;62.17;34.33;;;;;;;10.69;57.29;100191.23;125797;1099;104175;-81
2021/03/05 08:26:05;;;;;;;66.10;33.93;;;;;;;10.73;57.28;100200.08;125601;1099;109426;-81
2021/03/05 08:28:47;;;;;;;67.50;34.97;;;;;;;10.77;57.15;100202.84;125570;1099;104211;-80
2021/03/05 08:31:36;;;;;;;68.83;33.53;;;;;;;10.85;57.77;100199.56;125502;1099;104165;-80
2021/03/05 08:34:49;;;;;;;64.40;34.13;;;;;;;10.90;57.65;100209.33;125476;1099;104152;-79
2021/03/05 08:37:32;;;;;;;58.90;33.60;;;;;;;10.99;57.21;100208.73;124855;1102;104217;-80
2021/03/05 08:40:32;;;;;;;63.07;32.30;;;;;;;11.09;57.40;100205.50;124955;1102;104397;-79
2021/03/05 08:43:22;;;;;;;61.08;32.00;;;;;;;11.24;56.91;100210.31;124893;1102;104159;-78
2021/03/05 08:46:04;;;;;;;63.03;32.00;;;;;;;11.39;57.09;100209.87;124920;1102;104232;-78
2021/03/05 08:48:44;;;;;;;58.43;30.93;;;;;;;11.52;56.89;100200.58;124846;1102;104293;-78
2021/03/05 08:51:14;;;;;;;;;;;;;;;11.59;56.69;100188.48;124918;1102;104290;-78
2021/03/05 08:53:52;;;;;;;;;;;;;;;11.60;56.07;100188.52;124916;1102;104217;-79
2021/03/05 08:56:27;;;;;;;70.00;32.93;;;;;;;11.61;56.59;100195.57;124859;1102;105885;-76
2021/03/05 08:59:09;;;;;;;61.93;31.73;;;;;;;11.71;56.69;100187.92;124828;1102;102526;-80
2021/03/05 09:01:50;;;;;;;57.37;30.50;;;;;;;11.93;56.62;100192.02;125052;1099;104239;-81
2021/03/05 09:04:25;;;;;;;59.03;30.73;;;;;;;12.11;56.49;100187.22;125499;1099;104220;-80
2021/03/05 09:06:58;;;;;;;65.00;33.20;;;;;;;12.18;56.24;100189.13;125476;1099;104172;-78
2021/03/05 09:09:30;;;;;;;57.30;30.17;;;;;;;12.23;56.24;100179.63;125600;1099;104246;-80
2021/03/05 09:12:13;;;;;;;57.60;31.57;;;;;;;12.28;56.32;100179.73;125537;1099;104156;-81
2021/03/05 09:14:44;;;;;;;59.33;30.00;;;;;;;12.35;56.11;100179.01;125563;1099;104238;-79
2021/03/05 09:17:18;;;;;;;57.38;31.02;;;;;;;12.38;56.20;100186.09;125580;1099;102452;-80
2021/03/05 09:19:49;;;;;;;56.23;31.33;;;;;;;12.39;55.90;100178.23;125576;1099;104185;-78
2021/03/05 09:22:24;;;;;;;57.40;32.23;;;;;;;12.27;55.46;100175.32;125617;1099;104220;-79
2021/03/05 09:24:56;;;;;;;53.00;30.93;;;;;;;12.24;55.66;100172.62;125607;1099;104172;-79
2021/03/05 09:27:34;;;;;;;60.10;31.53;;;;;;;12.29;55.65;100168.34;125510;1099;104153;-79
2021/03/05 09:30:22;;;;;;;48.45;29.10;;;;;;;12.37;55.44;100171.16;125541;1099;104178;-76
2021/03/05 09:32:53;;;;;;;50.77;28.23;;;;;;;12.46;55.19;100174.00;125589;1099;104217;-80
2021/03/05 09:35:28;;;;;;;56.83;29.60;;;;;;;12.48;55.91;100159.16;125521;1099;104220;-77
2021/03/05 09:38:00;;;;;;;56.43;28.73;;;;;;;12.60;55.31;100163.78;125587;1099;104329;-79
2021/03/05 09:40:30;;;;;;;55.80;29.53;;;;;;;12.67;55.58;100162.16;125545;1099;104319;-80
2021/03/05 09:43:02;;;;;;;54.57;29.70;;;;;;;12.76;55.52;100163.27;125491;1099;104342;-79
2021/03/05 09:46:02;;;;;;;53.97;30.67;;;;;;;12.88;55.16;100164.38;125217;1099;104395;-77
2021/03/05 09:48:33;;;;;;;48.57;25.63;;;;;;;12.92;55.22;100167.11;125032;1099;104152;-80
2021/03/05 09:51:07;;;;;;;51.20;28.27;;;;;;;12.86;54.77;100156.45;125485;1099;102519;-79
2021/03/05 09:53:39;;;;;;;48.67;26.63;;;;;;;12.86;55.00;100153.81;124975;1102;104245;-78
2021/03/05 09:56:10;;;;;;;;;;;;;;;12.83;53.83;100153.75;125609;1099;104156;-79
2021/03/05 09:58:53;;;;;;;43.73;25.33;;;;;;;12.85;54.63;100152.02;125493;1099;104211;-77
2021/03/05 10:01:25;;;;;;;51.73;27.60;;;;;;;12.87;54.03;100144.16;125549;1099;104322;-80
2021/03/05 10:03:56;;;;;;;49.77;28.63;;;;;;;12.86;54.67;100140.65;125546;1099;105857;-77
2021/03/05 10:06:28;;;;;;;51.03;27.80;;;;;;;12.94;54.51;100140.80;125434;1099;104237;-80
2021/03/05 10:09:03;;;;;;;53.30;30.07;;;;;;;13.03;54.46;100142.75;125576;1099;104146;-79
2021/03/05 10:11:37;;;;;;;51.37;27.50;;;;;;;13.10;54.63;100142.91;125562;1099;104168;-78
2021/03/05 10:14:08;;;;;;;56.30;28.40;;;;;;;13.13;53.96;100142.96;125536;1099;104166;-77
2021/03/05 10:16:43;;;;;;;47.93;26.77;;;;;;;13.22;54.13;100146.63;125552;1096;104169;-77
2021/03/05 10:19:14;;;;;;;51.13;27.63;;;;;;;13.22;53.74;100142.23;125526;1100;104579;-77
2021/03/05 10:21:47;;;;;;;49.17;27.20;;;;;;;13.28;54.47;100154.65;125614;1099;104163;-77
2021/03/05 10:24:18;;;;;;;48.53;27.30;;;;;;;13.37;54.01;100148.67;125575;1097;104160;-79
2021/03/05 10:27:14;;;;;;;51.47;28.37;;;;;;;13.38;54.34;100142.56;125571;1099;104232;-78
2021/03/05 10:29:49;;;;;;;45.30;26.45;;;;;;;13.40;54.07;100141.73;125590;1099;104689;-76
2021/03/05 10:32:24;;;;;;;49.47;27.17;;;;;;;13.40;53.17;100130.28;125585;1099;104168;-76
2021/03/05 10:34:56;;;;;;;51.90;28.50;;;;;;;13.42;53.36;100128.59;125562;1099;104162;-77
2021/03/05 10:37:26;;;;;;;51.40;26.30;;;;;;;13.43;53.26;100125.98;125622;1099;104287;-75
2021/03/05 10:39:55;;;;;;;47.80;24.43;;;;;;;13.39;53.43;100125.89;125661;1099;104287;-75
2021/03/05 10:42:25;;;;;;;45.37;25.00;;;;;;;13.40;53.09;100125.02;125681;1099;104299;-77
2021/03/05 10:44:54;;;;;;;46.30;25.00;;;;;;;13.44;53.80;100127.73;125593;1098;104242;-75
2021/03/05 10:47:24;;;;;;;38.77;21.37;;;;;;;13.53;52.75;100124.39;125583;1099;104211;-77
2021/03/05 10:49:53;;;;;;;41.00;23.47;;;;;;;13.62;53.25;100123.67;125592;1099;104320;-77
2021/03/05 10:52:23;;;;;;;42.47;22.70;;;;;;;13.76;53.28;100115.97;125639;1099;104644;-76
2021/03/05 10:54:52;;;;;;;45.00;22.37;;;;;;;13.82;53.53;100114.34;125603;1099;104259;-76
2021/03/05 10:57:22;;;;;;;38.37;21.13;;;;;;;13.89;53.21;100110.05;125566;1099;104217;-78
2021/03/05 10:59:54;;;;;;;38.97;21.20;;;;;;;13.93;52.02;100108.33;125591;1099;104159;-76
2021/03/05 11:02:23;;;;;;;39.57;22.63;;;;;;;13.93;53.14;100109.24;125573;1099;104224;-76
2021/03/05 11:04:52;;;;;;;41.80;21.27;;;;;;;13.94;52.42;100103.08;125561;1099;104172;-76
2021/03/05 11:07:21;;;;;;;50.27;23.63;;;;;;;14.03;52.58;100099.71;125610;1099;104336;-77
2021/03/05 11:09:53;;;;;;;39.67;22.27;;;;;;;13.98;52.17;100099.64;125503;1099;104329;-77
2021/03/05 11:12:25;;;;;;;44.63;23.37;;;;;;;13.90;52.44;100090.73;125579;1099;104238;-76
2021/03/05 11:15:01;;;;;;;43.87;23.63;;;;;;;13.78;52.63;100085.26;125567;1099;102238;-76
2021/03/05 11:17:35;;;;;;;41.33;22.13;;;;;;;13.81;52.31;100094.09;125546;1099;104229;-75
2021/03/05 11:20:10;;;;;;;45.03;24.90;;;;;;;13.77;52.06;100094.02;125515;1099;104318;-76
2021/03/05 11:22:48;;;;;;;41.50;21.10;;;;;;;13.80;51.78;100094.95;125545;1099;104319;-76
2021/03/05 11:25:28;;;;;;;43.70;22.83;;;;;;;13.84;52.42;100095.91;125527;1099;104159;-77
2021/03/05 11:27:57;;;;;;;38.03;19.60;;;;;;;13.88;51.78;100094.19;125530;1099;105476;-76